createdAt,value
2022-09-06T03:46:54.970Z,16.10
2022-09-06T03:49:21.738Z,16.10
2022-09-06T03:51:48.488Z,16.00
2022-09-06T03:54:15.258Z,16.10
2022-09-06T03:56:41.983Z,16.20
2022-09-06T03:59:08.999Z,16.10
2022-09-06T04:01:35.861Z,16.10
2022-09-06T04:04:02.921Z,16.00
2022-09-06T04:06:29.709Z,16.10
2022-09-06T04:08:56.728Z,16.00
2022-09-06T04:11:23.539Z,16.00
2022-09-06T04:13:50.323Z,16.00
2022-09-06T04:16:18.698Z,16.00
2022-09-06T04:18:45.691Z,16.00
2022-09-06T04:21:12.461Z,16.00
2022-09-06T04:23:40.094Z,16.00
2022-09-06T04:26:07.160Z,16.00
2022-09-06T04:28:33.962Z,16.00
2022-09-06T04:31:04.955Z,16.10
2022-09-06T04:33:34.253Z,16.00
2022-09-06T04:36:02.611Z,15.90
2022-09-06T04:38:31.137Z,15.90
2022-09-06T04:40:57.862Z,15.90
2022-09-06T04:43:24.682Z,15.80
2022-09-06T04:45:51.501Z,15.80
2022-09-06T04:48:18.377Z,15.80
2022-09-06T04:50:45.187Z,15.80
2022-09-06T04:53:12.048Z,15.70
2022-09-06T04:55:39.014Z,15.70
2022-09-06T04:58:06.189Z,15.70
2022-09-06T05:00:34.533Z,15.70
2022-09-06T05:03:01.348Z,15.70
2022-09-06T05:05:28.229Z,15.70
2022-09-06T05:07:55.889Z,15.80
2022-09-06T05:10:23.377Z,15.80
2022-09-06T05:12:51.610Z,15.80
2022-09-06T05:15:20.196Z,15.80
2022-09-06T05:17:47.166Z,15.80
2022-09-06T05:20:15.133Z,15.80
2022-09-06T05:22:41.973Z,15.80
2022-09-06T05:25:09.829Z,15.90
2022-09-06T05:27:36.533Z,15.90
2022-09-06T05:30:04.157Z,15.90
2022-09-06T05:32:30.969Z,16.00
2022-09-06T05:34:57.737Z,16.00
2022-09-06T05:37:24.534Z,16.10
2022-09-06T05:39:51.752Z,16.10
2022-09-06T05:42:19.433Z,16.00
2022-09-06T05:44:46.336Z,16.00
2022-09-06T05:47:13.569Z,16.00
2022-09-06T05:49:40.533Z,16.00
2022-09-06T05:52:07.302Z,15.90
2022-09-06T05:54:34.011Z,15.80
2022-09-06T05:57:00.767Z,15.90
2022-09-06T05:59:27.576Z,15.90
2022-09-06T06:01:55.115Z,16.00
2022-09-06T06:04:22.451Z,16.10
2022-09-06T06:06:49.607Z,16.30
2022-09-06T06:09:16.961Z,16.40
2022-09-06T06:11:44.044Z,16.50
2022-09-06T06:14:10.990Z,16.60
2022-09-06T06:16:37.823Z,16.80
2022-09-06T06:19:04.666Z,16.90
2022-09-06T06:21:33.533Z,17.00
2022-09-06T06:24:02.981Z,17.10
2022-09-06T06:26:32.289Z,17.20
2022-09-06T06:29:01.890Z,17.30
2022-09-06T06:31:30.527Z,17.40
2022-09-06T06:33:58.258Z,17.50
2022-09-06T06:36:26.858Z,17.60
2022-09-06T06:38:55.342Z,17.70
2022-09-06T06:41:24.409Z,17.80
2022-09-06T06:43:52.633Z,17.80
2022-09-06T06:46:21.378Z,18.00
2022-09-06T06:48:51.559Z,18.20
2022-09-06T06:51:23.721Z,18.40
2022-09-06T06:53:50.544Z,18.50
2022-09-06T06:56:23.027Z,18.60
2022-09-06T06:58:52.444Z,18.80
2022-09-06T07:01:20.794Z,18.80
2022-09-06T07:03:48.329Z,18.90
2022-09-06T07:06:15.930Z,19.10
2022-09-06T07:08:42.917Z,19.30
2022-09-06T07:11:11.958Z,19.40
2022-09-06T07:13:39.013Z,19.50
2022-09-06T07:16:18.001Z,19.60
2022-09-06T07:18:45.932Z,19.90
2022-09-06T07:26:31.705Z,20.70
2022-09-06T07:29:00.653Z,21.00
2022-09-06T07:34:15.980Z,21.30
2022-09-06T07:36:42.733Z,21.30
2022-09-06T07:39:09.421Z,21.40
2022-09-06T07:41:36.158Z,21.50
2022-09-06T07:44:03.525Z,21.70
2022-09-06T07:46:30.266Z,21.80
2022-09-06T07:48:57.089Z,22.00
2022-09-06T07:51:23.841Z,22.20
2022-09-06T07:54:07.369Z,22.20
2022-09-06T07:56:40.348Z,22.50
2022-09-06T07:59:07.302Z,22.60
2022-09-06T08:01:40.273Z,22.90
2022-09-06T08:04:13.143Z,22.90
2022-09-06T08:09:33.446Z,23.70
2022-09-06T08:12:06.486Z,24.40
2022-09-06T08:14:34.357Z,24.90
2022-09-06T08:17:01.636Z,25.60
2022-09-06T08:19:28.374Z,26.10
2022-09-06T08:21:56.018Z,26.40
2022-09-06T08:24:23.030Z,26.40
2022-09-06T08:26:50.262Z,26.20
2022-09-06T08:29:17.053Z,25.20
2022-09-06T08:31:44.854Z,24.70
2022-09-06T08:34:12.713Z,24.60
2022-09-06T08:36:39.943Z,24.60
2022-09-06T08:39:11.548Z,24.50
2022-09-06T08:41:47.510Z,24.50
2022-09-06T08:47:13.582Z,24.50
2022-09-06T08:49:43.704Z,24.40
2022-09-06T08:53:13.245Z,24.50
2022-09-06T08:55:50.590Z,24.50
2022-09-06T08:58:41.902Z,24.50
2022-09-06T09:01:23.194Z,24.00
2022-09-06T09:03:50.632Z,23.50
2022-09-06T09:06:17.363Z,23.20
2022-09-06T09:08:52.809Z,23.10
2022-09-06T09:11:22.588Z,23.10
2022-09-06T09:13:59.317Z,23.30
2022-09-06T09:16:26.655Z,23.60
2022-09-06T09:18:57.854Z,23.60
2022-09-06T09:21:30.718Z,23.80
2022-09-06T09:24:02.393Z,24.10
2022-09-06T09:26:50.510Z,24.30
2022-09-06T09:29:17.588Z,24.50
2022-09-06T09:31:53.691Z,25.00
2022-09-06T09:34:39.657Z,25.20
2022-09-06T09:39:59.702Z,25.20
2022-09-06T09:42:29.538Z,24.50
2022-09-06T09:44:57.205Z,24.00
2022-09-06T09:47:30.211Z,23.80
2022-09-06T09:49:58.110Z,23.70
2022-09-06T09:52:30.905Z,23.70
2022-09-06T09:55:02.764Z,23.50
2022-09-06T09:57:45.209Z,23.40
2022-09-06T10:00:15.535Z,23.20
2022-09-06T10:02:43.113Z,23.10
2022-09-06T10:05:20.650Z,23.00
2022-09-06T10:08:09.262Z,22.80
2022-09-06T10:10:41.422Z,22.70
2022-09-06T10:13:30.444Z,22.80
2022-09-06T10:15:59.179Z,22.90
2022-09-06T10:18:41.215Z,23.00
2022-09-06T10:21:16.110Z,23.20
2022-09-06T10:26:48.563Z,23.00
2022-09-06T10:29:40.246Z,22.60
2022-09-06T10:32:18.554Z,22.70
2022-09-06T10:34:59.710Z,22.80
2022-09-06T10:37:44.328Z,23.10
2022-09-06T10:40:16.302Z,23.30
2022-09-06T10:42:46.985Z,23.50
2022-09-06T10:45:31.777Z,23.80
2022-09-06T10:48:14.885Z,24.10
2022-09-06T10:51:28.154Z,24.40
2022-09-06T10:54:02.689Z,24.90
2022-09-06T10:56:53.574Z,25.10
2022-09-06T10:59:50.235Z,24.70
2022-09-06T11:02:30.319Z,24.30
2022-09-06T11:10:49.896Z,23.90
2022-09-06T11:13:19.241Z,24.10
2022-09-06T11:15:52.078Z,24.20
2022-09-06T11:18:28.512Z,24.40
2022-09-06T11:21:35.727Z,24.70
2022-09-06T11:24:22.870Z,24.90
2022-09-06T11:27:19.857Z,25.20
2022-09-06T11:29:56.233Z,24.90
2022-09-06T11:32:40.261Z,25.10
2022-09-06T11:35:20.331Z,25.40
2022-09-06T11:37:51.015Z,25.60
2022-09-06T11:43:09.332Z,25.90
2022-09-06T11:45:45.957Z,25.80
2022-09-06T11:48:26.663Z,26.00
2022-09-06T11:50:59.750Z,26.20
2022-09-06T11:53:32.690Z,26.20
2022-09-06T11:56:02.382Z,25.90
2022-09-06T11:58:51.316Z,25.80
2022-09-06T12:01:18.845Z,25.70
2022-09-06T12:04:05.222Z,25.80
2022-09-06T12:06:39.709Z,25.90
2022-09-06T12:09:33.953Z,26.00
2022-09-06T12:12:01.318Z,26.00
2022-09-06T12:14:36.297Z,26.00
2022-09-06T12:17:07.606Z,25.90
2022-09-06T12:19:54.211Z,25.90
2022-09-06T12:22:29.924Z,25.80
2022-09-06T12:24:59.720Z,25.50
2022-09-06T12:27:27.545Z,25.50
2022-09-06T12:30:12.973Z,25.40
2022-09-06T12:32:49.462Z,25.40
2022-09-06T12:38:17.202Z,25.40
2022-09-06T12:40:51.609Z,25.30
2022-09-06T12:43:19.513Z,25.30
2022-09-06T12:45:50.563Z,25.20
2022-09-06T12:48:30.671Z,25.00
2022-09-06T12:51:19.418Z,24.80
2022-09-06T12:53:53.358Z,24.60
2022-09-06T12:56:21.702Z,24.20
2022-09-06T12:58:48.629Z,23.90
2022-09-06T13:01:36.628Z,23.70
2022-09-06T13:04:16.314Z,23.50
2022-09-06T13:06:46.438Z,23.10
2022-09-06T13:09:17.522Z,23.00
2022-09-06T13:11:47.388Z,22.90
2022-09-06T13:14:20.748Z,22.90
2022-09-06T13:16:49.678Z,23.00
2022-09-06T13:19:40.093Z,23.00
2022-09-06T13:22:11.097Z,23.00
2022-09-06T13:24:46.836Z,22.80
2022-09-06T13:27:36.732Z,22.70
2022-09-06T13:30:09.141Z,22.70
2022-09-06T13:32:45.669Z,22.70
2022-09-06T13:35:26.838Z,22.50
2022-09-06T13:37:53.562Z,22.40
2022-09-06T13:40:59.951Z,22.00
2022-09-06T13:43:26.398Z,21.80
2022-09-06T13:46:05.490Z,21.40
2022-09-06T13:48:32.998Z,21.30
2022-09-06T13:50:59.755Z,21.20
2022-09-06T13:53:26.757Z,21.20
2022-09-06T13:55:53.509Z,21.30
2022-09-06T13:58:21.643Z,21.40
2022-09-06T14:00:48.816Z,21.50
2022-09-06T14:03:22.557Z,21.60
2022-09-06T14:05:49.314Z,21.70
2022-09-06T14:08:16.162Z,21.70
2022-09-06T14:10:43.717Z,21.80
2022-09-06T14:13:10.849Z,22.00
2022-09-06T14:15:38.433Z,22.30
2022-09-06T14:18:05.461Z,22.60
2022-09-06T14:20:32.700Z,23.00
2022-09-06T14:22:59.642Z,23.40
2022-09-06T14:25:26.485Z,23.50
2022-09-06T14:27:53.250Z,23.50
2022-09-06T14:30:20.036Z,23.50
2022-09-06T14:32:46.762Z,23.40
2022-09-06T14:35:13.534Z,23.30
2022-09-06T14:37:40.378Z,23.50
2022-09-06T14:40:08.570Z,23.70
2022-09-06T14:42:35.395Z,23.90
2022-09-06T14:45:02.110Z,24.00
2022-09-06T14:47:28.862Z,24.00
2022-09-06T14:49:55.589Z,24.00
2022-09-06T14:52:22.409Z,24.10
2022-09-06T14:54:49.134Z,24.10
2022-09-06T14:57:15.914Z,24.00
2022-09-06T14:59:42.732Z,23.70
2022-09-06T15:02:09.565Z,23.30
2022-09-06T15:04:36.526Z,23.20
2022-09-06T15:07:03.918Z,23.00
2022-09-06T15:09:30.759Z,22.90
2022-09-06T15:11:57.580Z,22.70
2022-09-06T15:14:26.960Z,22.40
2022-09-06T15:16:59.894Z,22.20
2022-09-06T15:19:28.431Z,22.00
2022-09-06T15:21:56.249Z,21.90
2022-09-06T15:24:23.030Z,21.90
2022-09-06T15:26:50.225Z,22.00
2022-09-06T15:29:17.403Z,22.10
2022-09-06T15:31:50.055Z,22.30
2022-09-06T15:34:26.731Z,22.40
2022-09-06T15:36:53.675Z,22.40
2022-09-06T15:39:20.676Z,22.30
2022-09-06T15:41:49.994Z,22.20
2022-09-06T15:44:18.820Z,22.20
2022-09-06T15:46:58.132Z,22.10
2022-09-06T15:49:28.538Z,22.00
2022-09-06T15:51:57.246Z,21.90
2022-09-06T15:54:42.492Z,21.80
2022-09-06T15:57:09.515Z,21.60
2022-09-06T15:59:36.437Z,21.40
2022-09-06T16:02:03.408Z,21.40
2022-09-06T16:04:30.616Z,21.50
2022-09-06T16:06:57.373Z,21.60
2022-09-06T16:09:24.184Z,21.70
2022-09-06T16:11:51.006Z,21.80
2022-09-06T16:14:18.004Z,22.00
2022-09-06T16:16:45.502Z,21.90
2022-09-06T16:19:12.998Z,21.80
2022-09-06T16:21:41.654Z,21.60
2022-09-06T16:24:11.359Z,21.40
2022-09-06T16:26:40.915Z,21.10
2022-09-06T16:29:09.345Z,21.00
2022-09-06T16:31:40.297Z,20.90
2022-09-06T16:34:08.388Z,20.90
2022-09-06T16:36:35.336Z,21.00
2022-09-06T16:39:02.309Z,21.10
2022-09-06T16:41:42.855Z,21.20
2022-09-06T16:44:16.340Z,21.30
2022-09-06T16:46:45.698Z,21.30
2022-09-06T16:49:12.716Z,21.40
2022-09-06T16:51:39.485Z,21.40
2022-09-06T16:54:06.294Z,21.40
2022-09-06T16:56:35.753Z,21.20
2022-09-06T16:59:05.629Z,21.30
2022-09-06T17:01:33.441Z,21.20
2022-09-06T17:04:02.251Z,21.10
2022-09-06T17:06:30.043Z,21.10
2022-09-06T17:09:00.604Z,21.10
2022-09-06T17:11:28.713Z,21.10
2022-09-06T17:13:56.630Z,21.20
2022-09-06T17:16:42.445Z,21.20
2022-09-06T17:19:10.098Z,21.30
2022-09-06T17:21:39.139Z,21.20
2022-09-06T17:24:07.754Z,21.20
2022-09-06T17:26:37.202Z,21.10
2022-09-06T17:29:04.931Z,21.10
2022-09-06T17:31:32.096Z,21.10
2022-09-06T17:33:59.844Z,21.00
2022-09-06T17:36:30.057Z,20.80
2022-09-06T17:39:21.053Z,20.70
2022-09-06T17:41:50.929Z,20.70
2022-09-06T17:44:20.219Z,20.60
2022-09-06T17:47:09.018Z,20.60
2022-09-06T17:49:35.165Z,20.60
2022-09-06T17:52:01.997Z,20.60
2022-09-06T17:54:29.727Z,20.50
2022-09-06T17:56:56.509Z,20.50
2022-09-06T17:59:23.313Z,20.40
2022-09-06T18:01:50.268Z,20.20
2022-09-06T18:04:17.585Z,20.10
2022-09-06T18:06:46.362Z,20.10
2022-09-06T18:09:15.878Z,20.10
2022-09-06T18:11:45.910Z,20.10
2022-09-06T18:14:16.191Z,20.20
2022-09-06T18:16:46.918Z,20.20
2022-09-06T18:19:13.923Z,20.20
2022-09-06T18:21:41.059Z,20.20
2022-09-06T18:24:09.739Z,20.20
2022-09-06T18:26:37.382Z,20.20
2022-09-06T18:29:07.049Z,20.10
2022-09-06T18:31:33.915Z,20.00
2022-09-06T18:34:00.847Z,19.90
2022-09-06T18:36:31.964Z,19.80
2022-09-06T18:39:03.227Z,19.80
2022-09-06T18:41:49.007Z,19.60
2022-09-06T18:44:16.623Z,19.70
2022-09-06T18:46:43.574Z,19.60
2022-09-06T18:49:11.201Z,19.60
2022-09-06T18:51:39.892Z,19.50
2022-09-06T18:54:06.959Z,19.40
2022-09-06T18:56:34.120Z,19.20
2022-09-06T18:59:02.110Z,19.10
2022-09-06T19:01:30.379Z,19.00
2022-09-06T19:03:58.024Z,18.80
2022-09-06T19:06:26.100Z,18.90
2022-09-06T19:08:53.857Z,18.90
2022-09-06T19:11:21.680Z,18.90
2022-09-06T19:13:52.497Z,18.80
2022-09-06T19:16:20.162Z,18.80
2022-09-06T19:18:47.009Z,18.80
2022-09-06T19:21:19.319Z,18.80
2022-09-06T19:23:48.750Z,18.70
2022-09-06T19:26:18.325Z,18.70
2022-09-06T19:28:50.470Z,18.70
2022-09-06T19:31:18.555Z,18.70
2022-09-06T19:33:47.665Z,18.70
2022-09-06T19:36:15.214Z,18.60
2022-09-06T19:39:01.844Z,18.50
2022-09-06T19:41:31.205Z,18.50
2022-09-06T19:43:59.103Z,18.40
2022-09-06T19:46:26.824Z,18.40
2022-09-06T19:48:56.003Z,18.40
2022-09-06T19:51:24.114Z,18.30
2022-09-06T19:53:53.430Z,18.20
2022-09-06T19:56:22.842Z,18.30
2022-09-06T19:59:07.329Z,18.30
2022-09-06T20:01:35.933Z,18.30
2022-09-06T20:04:05.625Z,18.20
2022-09-06T20:06:33.029Z,18.20
2022-09-06T20:09:01.531Z,18.20
2022-09-06T20:11:30.581Z,18.20
2022-09-06T20:13:57.561Z,18.10
2022-09-06T20:16:24.883Z,18.10
2022-09-06T20:18:53.801Z,18.20
2022-09-06T20:21:21.029Z,18.20
2022-09-06T20:23:52.129Z,18.20
2022-09-06T20:26:20.311Z,18.20
2022-09-06T20:28:47.479Z,18.20
2022-09-06T20:31:16.799Z,18.20
2022-09-06T20:33:49.202Z,18.20
2022-09-06T20:36:17.642Z,18.20
2022-09-06T20:38:45.692Z,18.10
2022-09-06T20:41:18.022Z,18.20
2022-09-06T20:43:46.510Z,18.10
2022-09-06T20:46:15.517Z,18.00
2022-09-06T20:48:44.900Z,18.00
2022-09-06T20:51:15.884Z,17.90
2022-09-06T20:53:42.740Z,17.80
2022-09-06T20:56:15.336Z,17.90
2022-09-06T20:58:42.760Z,17.90
2022-09-06T21:01:15.903Z,17.90
2022-09-06T21:03:43.180Z,17.90
2022-09-06T21:06:12.301Z,17.90
2022-09-06T21:08:42.772Z,17.90
2022-09-06T21:11:10.452Z,17.90
2022-09-06T21:13:37.956Z,17.80
2022-09-06T21:16:05.281Z,17.80
2022-09-06T21:18:33.009Z,17.70
2022-09-06T21:21:08.028Z,17.70
2022-09-06T21:23:37.713Z,17.70
2022-09-06T21:26:04.511Z,17.70
2022-09-06T21:28:34.362Z,17.70
2022-09-06T21:31:09.747Z,17.80
2022-09-06T21:33:41.505Z,17.90
2022-09-06T21:36:11.234Z,18.00
2022-09-06T21:38:42.239Z,18.00
2022-09-06T21:41:10.661Z,17.90
2022-09-06T21:43:37.541Z,17.90
2022-09-06T21:46:07.398Z,18.00
2022-09-06T21:48:42.199Z,18.00
2022-09-06T21:51:10.789Z,18.10
2022-09-06T21:53:37.880Z,18.10
2022-09-06T21:56:05.363Z,18.10
2022-09-06T21:58:32.999Z,18.10
2022-09-06T22:01:01.293Z,18.20
2022-09-06T22:03:32.413Z,18.10
2022-09-06T22:05:59.531Z,18.10
2022-09-06T22:08:26.654Z,18.10
2022-09-06T22:10:53.482Z,18.20
2022-09-06T22:13:20.941Z,18.20
2022-09-06T22:15:47.809Z,18.20
2022-09-06T22:18:14.643Z,18.20
2022-09-06T22:20:41.399Z,18.10
2022-09-06T22:23:09.930Z,18.10
2022-09-06T22:25:36.703Z,18.10
2022-09-06T22:28:03.680Z,18.10
2022-09-06T22:30:31.043Z,18.10
2022-09-06T22:32:58.156Z,18.10
2022-09-06T22:35:24.877Z,18.20
2022-09-06T22:37:51.808Z,18.20
2022-09-06T22:40:19.001Z,18.20
2022-09-06T22:42:46.162Z,18.10
2022-09-06T22:45:12.929Z,18.00
2022-09-06T22:47:39.731Z,18.00
2022-09-06T22:50:07.206Z,18.00
2022-09-06T22:52:33.958Z,17.90
2022-09-06T22:55:00.688Z,17.90
2022-09-06T22:57:27.450Z,17.90
2022-09-06T22:59:54.247Z,17.90
